Time;durP1;ratioP1;P1;durP2;ratioP2;P2;SDS_P1;SDS_P2;PMS_P1;PMS_P2;Temp;Humidity;BMP_temperature;BMP_pressure;BME280_temperature;BME280_humidity;BME280_pressure;Samples;Min_cycle;Max_cycle;Signal;HPM_P1;HPM_P2
2021/12/09 00:01:57;;;;;;;9.55;4.00;;;5.30;99.90;;;;;;4152158;28;20456;-62
2021/12/09 00:04:02;;;;;;;8.93;3.13;;;5.20;99.90;;;;;;4153213;28;20037;-62
2021/12/09 00:06:05;;;;;;;10.20;3.33;;;5.20;99.90;;;;;;4153098;28;20041;-62
2021/12/09 00:08:06;;;;;;;9.05;3.75;;;5.20;99.90;;;;;;4174437;28;20037;-62
2021/12/09 00:10:08;;;;;;;9.05;3.40;;;5.20;99.90;;;;;;4160733;28;20030;-63
2021/12/09 00:12:09;;;;;;;6.03;3.35;;;5.20;99.90;;;;;;4173089;28;20029;-62
2021/12/09 00:14:13;;;;;;;7.50;2.95;;;5.20;99.90;;;;;;4170449;28;20041;-62
2021/12/09 00:16:13;;;;;;;9.32;3.42;;;5.20;99.90;;;;;;4162394;28;20037;-62
2021/12/09 00:18:14;;;;;;;6.75;2.65;;;5.20;99.90;;;;;;4168484;28;20399;-62
2021/12/09 00:20:16;;;;;;;10.32;3.83;;;5.20;99.90;;;;;;4167846;28;20037;-62
2021/12/09 00:22:16;;;;;;;7.32;3.10;;;5.10;99.90;;;;;;4168102;28;20036;-62
2021/12/09 00:24:17;;;;;;;8.65;3.25;;;5.10;99.90;;;;;;4168383;28;20388;-62
2021/12/09 00:26:18;;;;;;;8.40;3.00;;;5.20;99.90;;;;;;4172238;28;20025;-61
2021/12/09 00:28:18;;;;;;;7.53;3.15;;;5.10;99.90;;;;;;4162572;28;20044;-62
2021/12/09 00:30:20;;;;;;;8.57;3.20;;;5.10;99.90;;;;;;4167240;28;20036;-62
2021/12/09 00:32:21;;;;;;;7.82;3.05;;;5.10;99.90;;;;;;4168032;28;20472;-62
2021/12/09 00:34:31;;;;;;;7.80;3.53;;;5.10;99.90;;;;;;4168038;28;20041;-62
2021/12/09 00:36:54;;;;;;;7.32;2.85;;;5.10;99.90;;;;;;4173351;28;20108;-62
2021/12/09 00:38:55;;;;;;;8.38;3.30;;;5.10;99.90;;;;;;4165187;28;20036;-62
2021/12/09 00:40:56;;;;;;;8.15;3.42;;;5.20;99.90;;;;;;4170670;28;20033;-62
2021/12/09 00:42:56;;;;;;;7.13;3.33;;;5.10;99.90;;;;;;4167768;28;20506;-62
2021/12/09 00:44:57;;;;;;;7.75;3.03;;;5.10;99.90;;;;;;4168045;28;20457;-62
2021/12/09 00:46:57;;;;;;;9.23;3.33;;;5.10;99.90;;;;;;4164887;28;20038;-62
2021/12/09 00:48:58;;;;;;;4.88;2.70;;;5.10;99.90;;;;;;4167719;28;20040;-61
2021/12/09 00:50:59;;;;;;;11.15;3.88;;;5.10;99.90;;;;;;4171617;28;20100;-62
2021/12/09 00:53:00;;;;;;;7.68;3.35;;;5.10;99.90;;;;;;4165603;28;20029;-62
2021/12/09 00:55:01;;;;;;;7.72;3.40;;;5.10;99.90;;;;;;4167488;28;20094;-62
2021/12/09 00:57:02;;;;;;;6.95;3.28;;;5.10;99.90;;;;;;4168577;28;20535;-62
2021/12/09 00:59:03;;;;;;;6.03;3.10;;;5.10;99.90;;;;;;4154120;28;20041;-62
2021/12/09 01:01:05;;;;;;;8.10;3.10;;;5.10;99.90;;;;;;4162720;28;20455;-62
2021/12/09 01:03:06;;;;;;;8.63;3.07;;;5.10;99.90;;;;;;4166953;28;20053;-62
2021/12/09 01:05:09;;;;;;;6.72;2.63;;;5.10;99.90;;;;;;4166584;28;20057;-63
2021/12/09 01:07:10;;;;;;;7.88;3.17;;;5.10;99.90;;;;;;4167242;28;20170;-62
2021/12/09 01:09:10;;;;;;;6.97;2.80;;;5.10;99.90;;;;;;4166945;28;20037;-62
2021/12/09 01:11:12;;;;;;;6.25;3.03;;;5.10;99.90;;;;;;4166579;28;20375;-62
2021/12/09 01:13:13;;;;;;;6.10;2.53;;;5.10;99.90;;;;;;4170240;28;20456;-62
2021/12/09 01:15:16;;;;;;;6.20;3.15;;;5.10;99.90;;;;;;4160456;28;20064;-62
2021/12/09 01:17:16;;;;;;;;;;;5.10;99.90;;;;;;4169382;28;20354;-62
2021/12/09 01:19:17;;;;;;;7.47;2.70;;;5.10;99.90;;;;;;4169114;28;19916;-62
2021/12/09 01:21:18;;;;;;;7.30;3.30;;;5.10;99.90;;;;;;4171641;28;20033;-62
2021/12/09 01:23:19;;;;;;;6.55;2.70;;;5.10;99.90;;;;;;4166040;28;20044;-62
2021/12/09 01:25:21;;;;;;;11.60;3.25;;;5.00;99.90;;;;;;4169322;28;20119;-62
2021/12/09 01:27:22;;;;;;;;;;;5.10;99.90;;;;;;4163611;28;20583;-62
2021/12/09 01:29:32;;;;;;;5.72;2.70;;;5.00;99.90;;;;;;4167545;28;19916;-62
2021/12/09 01:31:37;;;;;;;3.72;2.25;;;5.00;99.90;;;;;;4166108;28;20539;-62
2021/12/09 01:33:37;;;;;;;6.63;2.80;;;5.00;99.90;;;;;;4151613;28;20034;-62
2021/12/09 01:35:40;;;;;;;5.10;2.83;;;5.00;99.90;;;;;;4150947;28;20034;-62
2021/12/09 01:37:41;;;;;;;5.55;2.83;;;5.00;99.90;;;;;;4151650;28;20037;-62
2021/12/09 01:39:42;;;;;;;5.45;2.70;;;5.00;99.90;;;;;;4170361;28;20037;-62
2021/12/09 01:41:42;;;;;;;7.03;3.35;;;5.00;99.90;;;;;;4165928;28;20508;-62
2021/12/09 01:43:44;;;;;;;7.38;2.72;;;5.00;99.90;;;;;;4167049;28;20034;-62
2021/12/09 01:45:44;;;;;;;6.88;3.08;;;4.90;99.90;;;;;;4150727;28;20613;-62
2021/12/09 01:47:45;;;;;;;7.30;2.78;;;4.90;99.90;;;;;;4158947;28;20061;-62
2021/12/09 01:49:46;;;;;;;10.48;3.08;;;4.90;99.90;;;;;;4151004;28;20381;-62
2021/12/09 01:51:47;;;;;;;8.32;3.00;;;4.90;99.90;;;;;;4165850;28;20034;-62
2021/12/09 01:53:48;;;;;;;7.57;3.20;;;4.90;99.90;;;;;;4167459;28;20034;-62
2021/12/09 01:55:49;;;;;;;7.60;2.92;;;4.90;99.90;;;;;;4173156;28;20033;-62
2021/12/09 01:57:52;;;;;;;6.65;3.20;;;4.90;99.90;;;;;;4162969;28;20055;-62
2021/12/09 01:59:52;;;;;;;9.82;3.08;;;4.90;99.90;;;;;;4166365;28;20043;-62
2021/12/09 02:01:53;;;;;;;7.63;3.20;;;4.90;99.90;;;;;;4165156;28;20543;-62
2021/12/09 02:03:54;;;;;;;8.60;3.35;;;4.90;99.90;;;;;;4173700;28;20037;-62
2021/12/09 02:05:55;;;;;;;8.25;3.30;;;4.90;99.90;;;;;;4158385;28;20029;-62
2021/12/09 02:07:56;;;;;;;6.25;3.22;;;4.80;99.90;;;;;;4166433;28;20038;-62
2021/12/09 02:09:57;;;;;;;6.90;3.00;;;4.80;99.90;;;;;;4166256;28;20041;-62
2021/12/09 02:11:57;;;;;;;6.45;3.22;;;4.80;99.90;;;;;;4165901;28;20046;-62
2021/12/09 02:13:58;;;;;;;7.53;3.20;;;4.80;99.90;;;;;;4170490;28;20083;-62
2021/12/09 02:15:59;;;;;;;7.15;2.90;;;4.70;99.90;;;;;;4150325;28;20045;-62
2021/12/09 02:18:03;;;;;;;9.52;3.33;;;4.70;99.90;;;;;;4154290;28;20045;-62
2021/12/09 02:20:05;;;;;;;4.30;2.25;;;4.70;99.90;;;;;;4164086;28;20509;-65
2021/12/09 02:22:06;;;;;;;10.00;3.10;;;4.70;99.90;;;;;;4170067;28;20490;-62
2021/12/09 02:24:09;;;;;;;8.70;3.33;;;4.70;99.90;;;;;;4166144;28;20061;-62
2021/12/09 02:26:11;;;;;;;4.82;2.53;;;4.70;99.90;;;;;;4171314;28;20086;-62
2021/12/09 02:28:13;;;;;;;6.13;2.85;;;4.70;99.90;;;;;;4152998;28;20071;-62
2021/12/09 02:30:15;;;;;;;11.25;3.17;;;4.60;99.90;;;;;;4152931;28;20037;-63
2021/12/09 02:32:16;;;;;;;9.87;2.80;;;4.70;99.90;;;;;;4166197;28;20088;-62
2021/12/09 02:34:16;;;;;;;11.20;3.33;;;4.60;99.90;;;;;;4166368;28;20484;-62
2021/12/09 02:36:17;;;;;;;7.10;2.67;;;4.60;99.90;;;;;;4171372;28;20026;-62
2021/12/09 02:38:18;;;;;;;10.82;3.17;;;4.60;99.90;;;;;;4159620;28;20038;-62
2021/12/09 02:40:19;;;;;;;5.57;2.78;;;4.60;99.90;;;;;;4168132;28;20030;-62
2021/12/09 02:42:19;;;;;;;6.68;2.72;;;4.60;99.90;;;;;;4165858;28;20392;-62
2021/12/09 02:44:21;;;;;;;5.47;2.65;;;4.60;99.90;;;;;;4171156;28;20071;-62
2021/12/09 02:46:24;;;;;;;7.88;2.92;;;4.60;99.90;;;;;;4165713;28;20029;-62
2021/12/09 02:48:25;;;;;;;10.07;2.85;;;4.60;99.90;;;;;;4166387;28;20076;-62
2021/12/09 02:50:26;;;;;;;6.28;2.58;;;4.60;99.90;;;;;;4168010;28;20033;-62
2021/12/09 02:52:26;;;;;;;4.70;2.17;;;4.60;99.90;;;;;;4161155;28;20102;-62
2021/12/09 02:54:28;;;;;;;6.75;2.78;;;4.60;99.90;;;;;;4170770;28;20032;-62
2021/12/09 02:56:29;;;;;;;5.50;2.40;;;4.50;99.90;;;;;;4160258;28;20068;-62
2021/12/09 02:58:29;;;;;;;5.32;2.90;;;4.50;99.90;;;;;;4166369;28;20472;-63
2021/12/09 03:00:31;;;;;;;6.82;2.65;;;4.50;99.90;;;;;;4165510;28;20022;-62
2021/12/09 03:02:31;;;;;;;7.10;2.70;;;4.50;99.90;;;;;;4172964;28;20535;-62
2021/12/09 03:04:37;;;;;;;6.20;2.60;;;4.40;99.90;;;;;;4163262;28;20030;-62
2021/12/09 03:06:41;;;;;;;8.20;2.75;;;4.40;99.90;;;;;;4173247;28;20040;-62
2021/12/09 03:08:43;;;;;;;7.72;2.50;;;4.50;99.90;;;;;;4168170;28;20052;-62
2021/12/09 03:10:43;;;;;;;8.82;2.70;;;4.50;99.90;;;;;;4168481;28;20040;-62
2021/12/09 03:12:44;;;;;;;5.03;2.33;;;4.40;99.90;;;;;;4164429;28;20030;-62
2021/12/09 03:14:45;;;;;;;10.52;3.17;;;4.40;99.90;;;;;;4169352;28;20026;-62
2021/12/09 03:16:46;;;;;;;10.88;3.03;;;4.40;99.90;;;;;;4168750;28;20065;-62
2021/12/09 03:18:50;;;;;;;7.82;3.25;;;4.50;99.90;;;;;;4169119;28;20105;-62
2021/12/09 03:20:51;;;;;;;7.72;2.35;;;4.50;99.90;;;;;;4168500;28;20030;-62
2021/12/09 03:22:51;;;;;;;6.20;2.65;;;4.50;99.90;;;;;;4170511;28;20030;-62
2021/12/09 03:24:53;;;;;;;8.18;3.03;;;4.40;99.90;;;;;;4176283;28;20090;-62
2021/12/09 03:26:56;;;;;;;7.97;2.78;;;4.50;99.90;;;;;;4161086;28;20038;-62
2021/12/09 03:29:03;;;;;;;7.60;2.78;;;4.40;99.90;;;;;;4168932;28;20103;-62
2021/12/09 03:31:04;;;;;;;8.00;3.13;;;4.50;99.90;;;;;;4153338;28;20465;-62
2021/12/09 03:33:04;;;;;;;6.97;3.05;;;4.40;99.90;;;;;;4168496;28;20042;-62
2021/12/09 03:35:06;;;;;;;5.88;2.72;;;4.50;99.90;;;;;;4168361;28;20041;-63
2021/12/09 03:37:18;;;;;;;5.80;2.87;;;4.40;99.90;;;;;;4174695;28;20046;-62
2021/12/09 03:39:23;;;;;;;7.03;2.90;;;4.40;99.90;;;;;;4171294;28;20358;-62
2021/12/09 03:41:24;;;;;;;6.43;2.90;;;4.40;99.90;;;;;;4167989;28;20038;-62
2021/12/09 03:43:25;;;;;;;9.80;3.47;;;4.40;99.90;;;;;;4168864;28;20033;-62
2021/12/09 03:45:26;;;;;;;5.95;2.90;;;4.40;99.90;;;;;;4170865;28;20721;-62
2021/12/09 03:47:29;;;;;;;7.80;2.97;;;4.40;99.90;;;;;;4165983;28;20080;-62
2021/12/09 03:49:30;;;;;;;5.65;2.50;;;4.50;99.90;;;;;;4172384;28;20387;-62
2021/12/09 03:51:31;;;;;;;6.93;3.33;;;4.50;99.90;;;;;;4170693;28;20036;-62
2021/12/09 03:53:31;;;;;;;10.05;3.47;;;4.50;99.90;;;;;;4168616;28;20092;-62
2021/12/09 03:55:32;;;;;;;7.80;4.00;;;4.50;99.90;;;;;;4170429;28;20029;-62
2021/12/09 03:57:34;;;;;;;7.97;3.80;;;4.50;99.90;;;;;;4163515;28;20091;-62
2021/12/09 03:59:35;;;;;;;9.68;3.90;;;4.40;99.90;;;;;;4168189;28;20034;-62
2021/12/09 04:01:38;;;;;;;9.43;3.85;;;4.50;99.90;;;;;;4170109;28;20365;-62
2021/12/09 04:03:39;;;;;;;6.60;3.00;;;4.50;99.90;;;;;;4168669;28;20021;-62
2021/12/09 04:05:40;;;;;;;8.20;3.17;;;4.50;99.90;;;;;;4174919;28;20116;-62
2021/12/09 04:07:40;;;;;;;5.75;3.17;;;4.50;99.90;;;;;;4163690;28;20523;-62
2021/12/09 04:09:41;;;;;;;6.57;3.30;;;4.40;99.90;;;;;;4170633;28;20092;-62
2021/12/09 04:11:43;;;;;;;7.90;4.28;;;4.50;99.90;;;;;;4170198;28;20037;-62
2021/12/09 04:13:44;;;;;;;7.72;3.88;;;4.50;99.90;;;;;;4163063;28;20037;-62
2021/12/09 04:15:45;;;;;;;8.00;4.07;;;4.50;99.90;;;;;;4167585;28;20430;-62
2021/12/09 04:17:45;;;;;;;9.43;3.72;;;4.50;99.90;;;;;;4168326;28;20033;-62
2021/12/09 04:19:49;;;;;;;11.23;4.20;;;4.50;99.90;;;;;;4167683;28;20075;-62
2021/12/09 04:21:50;;;;;;;10.90;4.45;;;4.40;99.90;;;;;;4169465;28;20045;-62
2021/12/09 04:23:50;;;;;;;8.25;4.05;;;4.50;99.90;;;;;;4170728;28;20044;-62
2021/12/09 04:25:52;;;;;;;4.63;3.10;;;4.50;99.90;;;;;;4162685;28;20037;-62
2021/12/09 04:27:55;;;;;;;9.90;3.30;;;4.50;99.90;;;;;;4170697;28;20041;-62
2021/12/09 04:29:56;;;;;;;5.38;2.90;;;4.40;99.90;;;;;;4167841;28;20028;-62
2021/12/09 04:31:56;;;;;;;7.55;2.90;;;4.40;99.90;;;;;;4170541;28;20025;-62
2021/12/09 04:33:57;;;;;;;7.70;2.97;;;4.50;99.90;;;;;;4167966;28;20029;-62
2021/12/09 04:35:58;;;;;;;5.38;2.45;;;4.40;99.90;;;;;;4169573;28;20100;-62
2021/12/09 04:37:59;;;;;;;6.30;2.75;;;4.40;99.90;;;;;;4167785;28;20392;-62
2021/12/09 04:40:00;;;;;;;6.43;2.40;;;4.40;99.90;;;;;;4171041;28;20479;-62
2021/12/09 04:42:01;;;;;;;7.55;2.53;;;4.40;99.90;;;;;;4167447;28;20154;-62
2021/12/09 04:44:03;;;;;;;8.57;2.95;;;4.40;99.90;;;;;;4167990;28;20028;-62
2021/12/09 04:46:04;;;;;;;8.57;2.95;;;4.40;99.90;;;;;;4167373;28;20037;-62
2021/12/09 04:48:06;;;;;;;6.53;2.30;;;4.40;99.90;;;;;;4168134;28;20037;-62
2021/12/09 04:50:08;;;;;;;5.68;2.90;;;4.40;99.90;;;;;;4167847;28;20041;-63
2021/12/09 04:52:09;;;;;;;5.80;2.90;;;4.40;99.90;;;;;;4166158;28;20037;-62
2021/12/09 04:54:09;;;;;;;8.77;3.50;;;4.30;99.90;;;;;;4168335;28;20033;-62
2021/12/09 04:56:10;;;;;;;5.82;3.05;;;4.30;99.90;;;;;;4167472;28;20029;-62
2021/12/09 04:58:11;;;;;;;8.07;3.10;;;4.30;99.90;;;;;;4167952;28;20546;-62
2021/12/09 05:00:16;;;;;;;10.23;3.30;;;4.30;99.90;;;;;;4167102;28;20021;-63
2021/12/09 05:02:28;;;;;;;7.63;2.75;;;4.30;99.90;;;;;;4162192;28;20053;-62
2021/12/09 05:04:28;;;;;;;10.38;3.63;;;4.20;99.90;;;;;;4171079;28;20025;-62
2021/12/09 05:06:29;;;;;;;7.40;2.65;;;4.30;99.90;;;;;;4171122;28;20033;-63
2021/12/09 05:08:32;;;;;;;7.18;2.95;;;4.20;99.90;;;;;;4167309;28;20048;-62
2021/12/09 05:10:48;;;;;;;6.68;3.20;;;4.20;99.90;;;;;;4169529;28;20025;-62
2021/12/09 05:12:49;;;;;;;7.75;2.97;;;4.20;99.90;;;;;;4163642;28;20087;-62
2021/12/09 05:14:50;;;;;;;6.10;2.53;;;4.10;99.90;;;;;;4170575;28;20041;-62
2021/12/09 05:16:53;;;;;;;9.85;2.97;;;4.10;99.90;;;;;;4169119;28;20029;-62
2021/12/09 05:18:58;;;;;;;5.70;3.17;;;4.10;99.90;;;;;;4171539;28;20037;-62
2021/12/09 05:21:00;;;;;;;12.25;3.42;;;4.10;99.90;;;;;;4153244;28;20038;-62
2021/12/09 05:23:01;;;;;;;7.78;3.28;;;4.10;99.90;;;;;;4171900;28;20095;-62
2021/12/09 05:25:02;;;;;;;7.72;3.00;;;4.00;99.90;;;;;;4166859;28;20430;-62
2021/12/09 05:27:03;;;;;;;7.03;3.47;;;4.00;99.90;;;;;;4168603;28;20029;-62
2021/12/09 05:29:03;;;;;;;6.70;3.10;;;4.00;99.90;;;;;;4160311;28;20037;-62
2021/12/09 05:33:25;;;;;;;7.00;2.72;;;4.00;99.90;;;;;;4166877;28;20065;-63
2021/12/09 05:35:26;;;;;;;5.38;2.85;;;4.00;99.90;;;;;;4169906;28;20079;-63
2021/12/09 05:37:27;;;;;;;7.43;3.08;;;4.00;99.90;;;;;;4162696;28;20399;-63
2021/12/09 05:39:28;;;;;;;5.82;2.80;;;4.00;99.90;;;;;;4167195;28;20055;-63
2021/12/09 05:41:29;;;;;;;7.07;2.85;;;3.90;99.90;;;;;;4169537;28;20028;-63
2021/12/09 05:43:29;;;;;;;6.72;3.17;;;3.90;99.90;;;;;;4155026;28;20518;-63
2021/12/09 05:45:30;;;;;;;10.68;3.08;;;3.90;99.90;;;;;;4169224;28;20042;-63
2021/12/09 05:47:31;;;;;;;7.82;3.25;;;3.90;99.90;;;;;;4162618;28;20045;-63
2021/12/09 05:49:34;;;;;;;7.25;3.00;;;3.90;99.90;;;;;;4149339;28;20072;-63
2021/12/09 05:51:36;;;;;;;10.88;3.35;;;3.90;99.90;;;;;;4168375;28;20021;-63
2021/12/09 05:53:36;;;;;;;8.20;2.80;;;3.80;99.90;;;;;;4162877;28;20025;-63
2021/12/09 05:55:43;;;;;;;6.53;2.63;;;3.80;99.90;;;;;;4165679;28;20067;-63
2021/12/09 05:57:43;;;;;;;12.18;3.83;;;3.80;99.90;;;;;;4169420;28;20064;-63
2021/12/09 05:59:44;;;;;;;7.78;2.90;;;3.70;99.90;;;;;;4166289;28;20044;-63
2021/12/09 06:01:45;;;;;;;9.13;2.92;;;3.80;99.90;;;;;;4165417;28;20058;-63
2021/12/09 06:03:46;;;;;;;8.38;2.90;;;3.80;99.90;;;;;;4166795;28;20033;-63
2021/12/09 06:05:48;;;;;;;5.78;2.83;;;3.80;99.90;;;;;;4169742;28;20025;-63
2021/12/09 06:07:49;;;;;;;9.40;3.20;;;3.70;99.90;;;;;;4162012;28;20067;-63
2021/12/09 06:09:49;;;;;;;6.78;2.70;;;3.70;99.90;;;;;;4166916;28;20037;-63
2021/12/09 06:11:50;;;;;;;5.38;2.88;;;3.70;99.90;;;;;;4165884;28;20039;-63
2021/12/09 06:13:52;;;;;;;10.00;3.10;;;3.70;99.90;;;;;;4170641;28;20041;-62
2021/12/09 06:15:53;;;;;;;6.82;2.80;;;3.70;99.90;;;;;;4162922;28;20037;-62
2021/12/09 06:17:53;;;;;;;7.72;3.22;;;3.70;99.90;;;;;;4166258;28;20032;-62
2021/12/09 06:19:54;;;;;;;10.07;3.00;;;3.70;99.90;;;;;;4166255;28;20037;-63
2021/12/09 06:21:55;;;;;;;5.60;2.85;;;3.70;99.90;;;;;;4138905;28;20026;-63
2021/12/09 06:23:57;;;;;;;9.57;3.13;;;3.70;99.90;;;;;;4170080;28;20037;-63
2021/12/09 06:25:58;;;;;;;6.68;2.53;;;3.70;99.90;;;;;;4168711;28;20502;-61
2021/12/09 06:27:58;;;;;;;8.20;3.03;;;3.70;99.90;;;;;;4166848;28;20048;-62
2021/12/09 06:29:59;;;;;;;9.32;3.38;;;3.70;99.90;;;;;;4166723;28;20025;-62
2021/12/09 06:32:00;;;;;;;5.15;2.83;;;3.60;99.90;;;;;;4165964;28;20040;-63
2021/12/09 06:34:01;;;;;;;6.63;2.85;;;3.60;99.90;;;;;;4169355;28;20036;-62
2021/12/09 06:36:01;;;;;;;7.22;2.88;;;3.60;99.90;;;;;;4166983;28;20039;-63
2021/12/09 06:38:03;;;;;;;6.53;3.28;;;3.60;99.90;;;;;;4169624;28;20037;-63
2021/12/09 06:40:05;;;;;;;7.35;3.20;;;3.60;99.90;;;;;;4171307;28;20039;-63
2021/12/09 06:42:07;;;;;;;7.43;3.30;;;3.60;99.90;;;;;;4162258;28;20030;-62
2021/12/09 06:44:08;;;;;;;8.50;3.90;;;3.60;99.90;;;;;;4169435;28;20038;-63
2021/12/09 06:46:10;;;;;;;13.88;4.03;;;3.60;99.90;;;;;;4169241;28;20480;-63
2021/12/09 06:48:11;;;;;;;7.78;3.75;;;3.60;99.90;;;;;;4169411;28;20041;-63
2021/12/09 06:50:15;;;;;;;9.18;3.92;;;3.60;99.90;;;;;;4174925;28;20365;-64
2021/12/09 06:52:16;;;;;;;13.07;5.32;;;3.60;99.90;;;;;;4163033;28;20058;-62
2021/12/09 06:54:17;;;;;;;10.88;4.65;;;3.60;99.90;;;;;;4169503;28;20034;-63
2021/12/09 06:56:18;;;;;;;11.98;4.97;;;3.60;99.90;;;;;;4168633;28;20137;-63
2021/12/09 06:58:21;;;;;;;8.98;4.38;;;3.70;99.90;;;;;;4169524;28;20101;-63
2021/12/09 07:00:26;;;;;;;9.18;4.20;;;3.70;99.90;;;;;;4168329;28;20041;-63
2021/12/09 07:02:26;;;;;;;6.60;3.70;;;3.70;99.90;;;;;;4169968;28;20054;-63
2021/12/09 07:04:27;;;;;;;11.23;4.53;;;3.70;99.90;;;;;;4177838;28;20056;-63
2021/12/09 07:06:28;;;;;;;10.90;4.05;;;3.70;99.90;;;;;;4163645;28;20060;-63
2021/12/09 07:08:28;;;;;;;10.05;3.92;;;3.70;99.90;;;;;;4171426;28;20095;-63
2021/12/09 07:10:29;;;;;;;11.48;3.88;;;3.70;99.90;;;;;;4166822;28;20025;-63
2021/12/09 07:12:30;;;;;;;6.68;3.25;;;3.60;99.90;;;;;;4179983;28;20029;-63
2021/12/09 07:14:30;;;;;;;9.90;3.30;;;3.60;99.90;;;;;;4171922;28;20479;-62
2021/12/09 07:16:31;;;;;;;9.43;3.53;;;3.60;99.90;;;;;;4165082;28;20034;-62
2021/12/09 07:18:32;;;;;;;9.45;3.13;;;3.70;99.90;;;;;;4169416;28;22094;-63
2021/12/09 07:20:33;;;;;;;7.78;3.05;;;3.70;99.90;;;;;;4171240;28;20040;-63
2021/12/09 07:22:35;;;;;;;10.55;3.22;;;3.70;99.90;;;;;;4163784;28;20439;-63
2021/12/09 07:24:36;;;;;;;9.77;3.47;;;3.70;99.90;;;;;;4168936;28;20029;-63
2021/12/09 07:26:37;;;;;;;9.32;3.78;;;3.70;99.90;;;;;;4172894;28;20045;-63
2021/12/09 07:28:38;;;;;;;9.45;3.63;;;3.60;99.90;;;;;;4166231;28;20561;-63
2021/12/09 07:30:39;;;;;;;9.27;3.17;;;3.60;99.90;;;;;;4168357;28;20048;-63
2021/12/09 07:32:40;;;;;;;8.73;3.08;;;3.60;99.90;;;;;;4164142;28;20399;-63
2021/12/09 07:34:40;;;;;;;10.63;3.28;;;3.60;99.90;;;;;;4158325;28;20025;-63
2021/12/09 07:36:41;;;;;;;8.20;3.13;;;3.60;99.90;;;;;;4171004;28;20042;-63
2021/12/09 07:38:42;;;;;;;10.77;3.20;;;3.60;99.90;;;;;;4168946;28;20147;-63
2021/12/09 07:40:43;;;;;;;5.90;2.95;;;3.60;99.90;;;;;;4173761;28;20033;-63
2021/12/09 07:42:44;;;;;;;7.07;3.08;;;3.60;99.90;;;;;;4163094;28;20488;-63
2021/12/09 07:44:45;;;;;;;9.30;3.22;;;3.60;99.90;;;;;;4167521;28;20041;-63
2021/12/09 07:46:48;;;;;;;7.60;3.30;;;3.60;99.90;;;;;;4169955;28;20034;-63
2021/12/09 07:48:48;;;;;;;10.13;3.45;;;3.60;99.90;;;;;;4166067;28;20038;-63
2021/12/09 07:50:49;;;;;;;7.78;3.05;;;3.60;99.90;;;;;;4173820;28;20112;-63
2021/12/09 07:52:51;;;;;;;10.20;3.20;;;3.60;99.90;;;;;;4162464;28;20040;-63
2021/12/09 07:54:52;;;;;;;7.78;3.08;;;3.60;99.90;;;;;;4156943;28;20041;-63
2021/12/09 07:56:52;;;;;;;6.57;2.45;;;3.60;99.90;;;;;;4166220;28;20485;-63
2021/12/09 07:58:53;;;;;;;11.20;3.03;;;3.60;99.90;;;;;;4171693;28;20060;-63
2021/12/09 08:00:54;;;;;;;9.60;2.83;;;3.60;99.90;;;;;;4167400;28;20033;-63
2021/12/09 08:02:56;;;;;;;11.23;3.25;;;3.70;99.90;;;;;;4168293;28;20056;-63
2021/12/09 08:04:56;;;;;;;8.95;3.10;;;3.70;99.90;;;;;;4168310;28;20386;-63
2021/12/09 08:06:57;;;;;;;7.90;2.40;;;3.70;99.90;;;;;;4167584;28;20033;-63
2021/12/09 08:08:58;;;;;;;7.70;2.60;;;3.80;99.90;;;;;;4164748;28;20104;-63
2021/12/09 08:10:58;;;;;;;8.88;2.78;;;3.80;99.90;;;;;;4169778;28;20042;-63
2021/12/09 08:13:00;;;;;;;7.72;2.75;;;3.90;99.90;;;;;;4168389;28;20385;-63
2021/12/09 08:15:00;;;;;;;6.18;2.88;;;4.00;99.90;;;;;;4174148;28;20064;-63
2021/12/09 08:17:12;;;;;;;8.27;2.72;;;4.10;99.90;;;;;;4166686;28;20029;-62
2021/12/09 08:19:14;;;;;;;8.45;2.53;;;4.10;99.90;;;;;;4168883;28;20037;-63
2021/12/09 08:21:15;;;;;;;8.70;3.45;;;4.00;99.90;;;;;;4164018;28;20030;-62
2021/12/09 08:23:16;;;;;;;5.88;2.53;;;4.10;99.90;;;;;;4168045;28;20045;-63
2021/12/09 08:25:17;;;;;;;14.60;4.00;;;4.10;99.90;;;;;;4167117;28;20030;-63
2021/12/09 08:27:17;;;;;;;8.70;3.13;;;4.00;99.90;;;;;;4171264;28;20114;-62
2021/12/09 08:29:18;;;;;;;9.43;2.65;;;4.00;99.90;;;;;;4164239;28;20079;-62
2021/12/09 08:31:19;;;;;;;6.75;2.70;;;4.00;99.90;;;;;;4166987;28;20029;-62
2021/12/09 08:33:22;;;;;;;6.82;3.03;;;4.10;99.90;;;;;;4169092;28;20097;-62
2021/12/09 08:35:22;;;;;;;8.27;2.97;;;4.10;99.90;;;;;;4167378;28;20026;-63
2021/12/09 08:37:23;;;;;;;9.73;2.90;;;4.10;99.90;;;;;;4168236;28;20073;-62
2021/12/09 08:39:24;;;;;;;8.68;2.80;;;4.20;99.90;;;;;;4167839;28;20026;-62
2021/12/09 08:41:25;;;;;;;9.88;3.00;;;4.20;99.90;;;;;;4167568;28;20354;-62
2021/12/09 08:43:26;;;;;;;7.95;3.47;;;4.20;99.90;;;;;;4167868;28;20083;-62
2021/12/09 08:45:27;;;;;;;6.95;3.17;;;4.10;99.90;;;;;;4167457;28;20554;-63
2021/12/09 08:47:27;;;;;;;6.57;2.33;;;4.20;99.90;;;;;;4167982;28;20084;-62
2021/12/09 08:49:28;;;;;;;8.10;2.75;;;4.20;99.90;;;;;;4170826;28;20061;-62
2021/12/09 08:51:29;;;;;;;9.80;2.80;;;4.20;99.90;;;;;;4163332;28;20029;-62
2021/12/09 08:53:29;;;;;;;10.15;3.70;;;4.20;99.90;;;;;;4167913;28;20098;-62
2021/12/09 08:55:31;;;;;;;4.90;2.58;;;4.20;99.90;;;;;;4166842;28;20030;-63
2021/12/09 08:57:32;;;;;;;7.50;3.37;;;4.20;99.90;;;;;;4170888;28;20115;-62
2021/12/09 08:59:33;;;;;;;9.95;2.90;;;4.30;99.90;;;;;;4162855;28;20025;-62
2021/12/09 09:01:35;;;;;;;7.82;3.03;;;4.30;99.90;;;;;;4167304;28;20037;-63
2021/12/09 09:03:35;;;;;;;7.00;2.75;;;4.40;99.90;;;;;;4167667;28;20021;-62
2021/12/09 09:05:37;;;;;;;9.40;3.10;;;4.40;99.90;;;;;;4166662;28;20114;-62
2021/12/09 09:07:42;;;;;;;8.98;3.13;;;4.40;99.90;;;;;;4167455;28;20034;-62
2021/12/09 09:09:43;;;;;;;10.45;3.83;;;4.40;99.90;;;;;;4167208;28;20061;-62
2021/12/09 09:11:44;;;;;;;7.40;3.20;;;4.40;99.90;;;;;;4167295;28;20071;-62
2021/12/09 09:13:44;;;;;;;7.72;3.25;;;4.40;99.90;;;;;;4170993;28;20084;-62
2021/12/09 09:15:48;;;;;;;7.13;3.25;;;4.40;99.90;;;;;;4162171;28;20115;-62
2021/12/09 09:17:49;;;;;;;11.38;3.90;;;4.50;99.90;;;;;;4166792;28;20042;-62
2021/12/09 09:19:49;;;;;;;7.00;3.35;;;4.50;99.90;;;;;;4167598;28;20030;-62
2021/12/09 09:21:50;;;;;;;8.25;3.40;;;4.50;99.90;;;;;;4172820;28;20112;-62
2021/12/09 09:23:51;;;;;;;9.80;3.65;;;4.50;99.90;;;;;;4164237;28;20033;-62
2021/12/09 09:25:52;;;;;;;9.07;3.50;;;4.50;99.90;;;;;;4165444;28;20115;-62
2021/12/09 09:27:53;;;;;;;8.80;3.60;;;4.60;99.90;;;;;;4166939;28;20092;-62
2021/12/09 09:29:53;;;;;;;6.22;2.70;;;4.60;99.90;;;;;;4167550;28;20427;-62
2021/12/09 09:31:55;;;;;;;13.23;4.15;;;4.60;99.90;;;;;;4166762;28;20083;-63
2021/12/09 09:33:56;;;;;;;8.65;3.67;;;4.60;99.90;;;;;;4171042;28;20087;-62
2021/12/09 09:35:57;;;;;;;8.32;3.40;;;4.60;99.90;;;;;;4163651;28;20464;-63
2021/12/09 09:37:58;;;;;;;11.13;3.60;;;4.70;99.90;;;;;;4167102;28;20044;-62
2021/12/09 09:39:58;;;;;;;7.97;3.33;;;4.70;99.90;;;;;;4168894;28;20065;-62
2021/12/09 09:42:19;;;;;;;8.23;3.20;;;4.70;99.90;;;;;;4164969;28;20044;-62
2021/12/09 09:44:23;;;;;;;7.32;3.53;;;4.80;99.90;;;;;;4166756;28;20032;-63
2021/12/09 09:46:28;;;;;;;11.15;4.13;;;4.90;99.90;;;;;;4156036;28;20460;-62
2021/12/09 09:48:29;;;;;;;10.55;4.07;;;4.90;99.90;;;;;;4159647;28;20037;-62
2021/12/09 09:50:30;;;;;;;8.38;3.65;;;4.90;99.90;;;;;;4170172;28;20025;-62
2021/12/09 09:52:31;;;;;;;6.90;2.80;;;4.90;99.90;;;;;;4167180;28;20049;-62
2021/12/09 09:54:32;;;;;;;8.30;3.60;;;5.00;99.90;;;;;;4166275;28;20033;-62
2021/12/09 09:56:34;;;;;;;8.57;3.72;;;5.00;99.90;;;;;;4172221;28;20028;-62
2021/12/09 09:58:35;;;;;;;9.77;3.45;;;5.00;99.90;;;;;;4168793;28;20037;-62
2021/12/09 10:00:35;;;;;;;11.60;4.32;;;5.10;99.90;;;;;;4158566;28;20091;-63
2021/12/09 10:02:37;;;;;;;10.10;3.83;;;5.10;99.90;;;;;;4166468;28;20465;-63
2021/12/09 10:04:45;;;;;;;8.40;4.07;;;5.10;99.90;;;;;;4172449;28;20175;-61
2021/12/09 10:06:47;;;;;;;8.48;3.65;;;5.10;99.90;;;;;;4168621;28;20380;-62
2021/12/09 10:08:48;;;;;;;6.20;3.23;;;5.10;99.90;;;;;;4169253;28;20120;-63
2021/12/09 10:10:48;;;;;;;10.60;3.53;;;5.10;99.90;;;;;;4159973;28;20025;-62
2021/12/09 10:13:06;;;;;;;9.73;3.63;;;5.20;99.90;;;;;;4166813;28;20041;-62
2021/12/09 10:15:07;;;;;;;9.88;3.42;;;5.10;99.90;;;;;;4150662;28;20473;-63
2021/12/09 10:17:12;;;;;;;10.32;3.67;;;5.10;99.90;;;;;;4172759;28;20035;-62
2021/12/09 10:19:19;;;;;;;8.23;3.80;;;5.10;99.90;;;;;;4166798;28;20030;-63
2021/12/09 10:21:25;;;;;;;13.32;3.78;;;5.20;99.90;;;;;;4171478;28;20056;-62
2021/12/09 10:23:26;;;;;;;10.65;3.60;;;5.20;99.90;;;;;;4164884;28;20100;-62
2021/12/09 10:25:26;;;;;;;8.93;4.25;;;5.20;99.90;;;;;;4170024;28;20040;-62
2021/12/09 10:27:34;;;;;;;10.73;3.85;;;5.20;99.90;;;;;;4163029;28;20068;-62
2021/12/09 10:29:43;;;;;;;9.85;4.07;;;5.10;99.90;;;;;;4167059;28;20067;-63
2021/12/09 10:31:52;;;;;;;11.48;4.82;;;5.10;99.90;;;;;;4163009;28;20033;-63
2021/12/09 10:34:21;;;;;;;9.25;3.88;;;5.20;99.90;;;;;;4166188;28;20115;-62
2021/12/09 10:36:40;;;;;;;8.90;4.15;;;5.20;99.90;;;;;;4167440;28;20037;-62
2021/12/09 10:38:40;;;;;;;12.35;4.40;;;5.20;99.90;;;;;;4159476;28;20034;-62
2021/12/09 10:40:41;;;;;;;12.48;4.95;;;5.20;99.90;;;;;;4165744;28;20388;-62
2021/12/09 10:42:44;;;;;;;8.85;3.92;;;5.20;99.90;;;;;;4167332;28;20128;-62
2021/12/09 10:44:52;;;;;;;7.20;3.50;;;5.30;99.90;;;;;;4173040;28;20026;-62